Time;durP1;ratioP1;P1;durP2;ratioP2;P2;SDS_P1;SDS_P2;PMS_P1;PMS_P2;Temp;Humidity;BMP_temperature;BMP_pressure;BME280_temperature;BME280_humidity;BME280_pressure;Samples;Min_cycle;Max_cycle;Signal;HPM_P1;HPM_P2
2022/07/28 00:01:14;;;;;;;0.10;0.10;;;14.50;99.90;13.60;97217.00;;;;5014236;28;20196;-77
2022/07/28 00:03:48;;;;;;;0.00;0.00;;;14.50;99.90;13.80;97168.00;;;;5015198;28;20703;-77
2022/07/28 00:06:16;;;;;;;0.00;0.00;;;14.70;99.90;226.50;164546.00;;;;5014170;28;20242;-76
2022/07/28 00:08:44;;;;;;;0.00;0.00;;;14.70;99.90;226.50;231333.00;;;;5023327;28;20192;-77
2022/07/28 00:11:12;;;;;;;0.00;0.00;;;14.70;99.90;226.50;231333.00;;;;5018632;28;20198;-76
2022/07/28 00:13:41;;;;;;;0.00;0.00;;;14.70;99.90;226.50;231333.00;;;;5029061;28;20741;-76
2022/07/28 00:16:09;;;;;;;0.00;0.00;;;14.60;99.90;226.50;231333.00;;;;5013914;28;20223;-76
2022/07/28 00:18:37;;;;;;;0.00;0.00;;;14.60;99.90;226.50;231333.00;;;;5014011;28;20254;-77
2022/07/28 00:21:06;;;;;;;0.00;0.00;;;14.50;99.90;226.50;231333.00;;;;5013814;28;20659;-75
2022/07/28 00:23:34;;;;;;;0.10;0.10;;;14.30;99.90;226.50;231333.00;;;;5016421;28;20218;-77
2022/07/28 00:26:08;;;;;;;0.00;0.00;;;14.30;99.90;226.50;231333.00;;;;5033494;28;20222;-75
2022/07/28 00:28:36;;;;;;;0.00;0.00;;;14.30;99.90;226.50;231333.00;;;;5013842;28;20199;-75
2022/07/28 00:31:05;;;;;;;0.00;0.00;;;14.30;99.90;226.50;231333.00;;;;5013840;28;20188;-75
2022/07/28 00:33:40;;;;;;;0.10;0.10;;;14.30;99.90;226.50;231333.00;;;;5016599;28;20308;-74
2022/07/28 00:36:11;;;;;;;0.10;0.10;;;14.40;99.90;226.50;231333.00;;;;5032837;28;20690;-74
2022/07/28 00:38:40;;;;;;;0.10;0.10;;;14.30;99.90;226.50;231333.00;;;;5031491;28;20195;-74
2022/07/28 00:41:11;;;;;;;0.00;0.00;;;14.20;99.90;226.50;231333.00;;;;5026134;28;20209;-74
2022/07/28 00:43:40;;;;;;;0.00;0.00;;;14.20;99.90;226.50;231333.00;;;;5019721;28;20580;-71
2022/07/28 00:46:09;;;;;;;0.10;0.10;;;14.20;99.90;226.50;231333.00;;;;5033218;28;20191;-71
2022/07/28 00:48:38;;;;;;;0.10;0.10;;;14.10;99.90;226.50;231333.00;;;;5013848;28;20207;-72
2022/07/28 00:51:09;;;;;;;0.10;0.10;;;14.10;99.90;226.50;231333.00;;;;5013478;28;20600;-73
2022/07/28 00:53:39;;;;;;;0.00;0.00;;;14.10;99.90;226.50;231333.00;;;;5014034;28;20227;-73
2022/07/28 00:56:07;;;;;;;0.10;0.10;;;14.00;99.90;226.50;231333.00;;;;5013809;28;20299;-72
2022/07/28 00:58:36;;;;;;;0.00;0.00;;;14.00;99.90;226.50;231333.00;;;;5021411;28;20820;-72
2022/07/28 01:01:05;;;;;;;0.00;0.00;;;13.80;99.90;226.50;231333.00;;;;5032774;28;20281;-72
2022/07/28 01:03:38;;;;;;;0.00;0.00;;;13.80;99.90;12.80;97141.00;;;;5029787;28;20234;-72
2022/07/28 01:06:18;;;;;;;0.00;0.00;;;13.80;99.90;12.70;97195.00;;;;5015502;28;20211;-72
2022/07/28 01:09:01;;;;;;;0.10;0.10;;;13.70;99.90;12.70;97158.00;;;;5012413;28;20249;-74
2022/07/28 01:11:38;;;;;;;0.10;0.10;;;13.70;99.90;12.70;97187.00;;;;5012679;28;20200;-75
2022/07/28 01:14:20;;;;;;;0.00;0.00;;;13.70;99.90;12.60;97183.00;;;;5024146;28;20222;-74
2022/07/28 01:17:01;;;;;;;0.00;0.00;;;13.60;99.90;12.50;97194.00;;;;5025586;28;20217;-74
2022/07/28 01:19:46;;;;;;;0.00;0.00;;;13.50;99.90;12.50;97202.00;;;;5031248;28;20191;-72
2022/07/28 01:22:21;;;;;;;0.10;0.10;;;13.50;99.90;12.40;97200.00;;;;5014127;28;20702;-73
2022/07/28 01:25:00;;;;;;;0.10;0.10;;;13.60;99.90;12.60;97193.00;;;;5030847;28;20201;-77
2022/07/28 01:27:50;;;;;;;0.10;0.10;;;13.60;99.90;12.50;97206.00;;;;5031666;28;20205;-77
2022/07/28 01:30:39;;;;;;;0.00;0.00;;;13.50;99.90;12.50;97227.00;;;;5032468;28;20186;-76
2022/07/28 01:33:16;;;;;;;0.00;0.00;;;13.50;99.90;12.60;97252.00;;;;5026960;28;20223;-77
2022/07/28 01:35:49;;;;;;;0.10;0.10;;;13.60;99.90;12.40;97222.00;;;;5012869;28;20198;-76
2022/07/28 01:38:21;;;;;;;0.00;0.00;;;13.50;99.90;12.30;97246.00;;;;5029107;28;20237;-77
2022/07/28 01:40:54;;;;;;;0.10;0.10;;;13.30;99.90;12.40;97236.00;;;;5032651;28;20191;-77
2022/07/28 01:43:26;;;;;;;0.00;0.00;;;13.40;99.90;12.50;97254.00;;;;5031269;28;20289;-77
2022/07/28 01:45:58;;;;;;;0.08;0.08;;;13.60;99.90;12.40;97208.00;;;;5023478;28;20203;-75
2022/07/28 01:48:29;;;;;;;0.00;0.00;;;13.40;99.90;12.30;97224.00;;;;5013768;28;20196;-75
2022/07/28 01:50:58;;;;;;;0.00;0.00;;;13.40;99.90;12.40;97229.00;;;;5024129;28;20195;-76
2022/07/28 01:53:30;;;;;;;0.10;0.10;;;13.50;99.90;12.60;97259.00;;;;5012613;28;20215;-76
2022/07/28 01:56:07;;;;;;;0.00;0.00;;;13.70;99.90;12.60;97262.00;;;;5013167;28;20741;-77
2022/07/28 01:58:37;;;;;;;0.10;0.10;;;13.60;99.90;12.40;97262.00;;;;5030534;28;20203;-77
2022/07/28 02:01:09;;;;;;;0.10;0.10;;;13.50;99.90;12.40;97255.00;;;;5032933;28;20201;-77
2022/07/28 02:03:40;;;;;;;0.10;0.10;;;13.40;99.90;12.40;97261.00;;;;5031507;28;20233;-76
2022/07/28 02:06:10;;;;;;;0.10;0.10;;;13.40;99.90;12.40;97195.00;;;;5031064;28;20198;-77
2022/07/28 02:08:41;;;;;;;0.10;0.10;;;13.30;99.90;12.30;97259.00;;;;5011652;28;20199;-77
2022/07/28 02:14:08;;;;;;;0.10;0.10;;;13.20;99.90;12.10;97235.00;;;;4969935;28;20750;-77
2022/07/28 02:16:42;;;;;;;0.00;0.00;;;13.10;99.90;12.10;97234.00;;;;5004540;28;20219;-76
2022/07/28 02:19:13;;;;;;;0.10;0.10;;;13.10;99.90;12.00;97220.00;;;;5030689;28;20201;-76
2022/07/28 02:21:42;;;;;;;0.08;0.08;;;13.00;99.90;12.00;97211.00;;;;5015091;28;20204;-76
2022/07/28 02:24:12;;;;;;;0.10;0.10;;;13.00;99.90;11.90;97206.00;;;;5030601;28;20203;-76
2022/07/28 02:26:48;;;;;;;0.10;0.10;;;12.90;99.90;11.80;97211.00;;;;5026991;28;20221;-77
2022/07/28 02:29:22;;;;;;;0.10;0.10;;;12.80;99.90;11.80;97216.00;;;;5012650;28;20681;-76
2022/07/28 02:32:19;;;;;;;0.00;0.00;;;12.70;99.90;11.80;97228.00;;;;5014036;28;20230;-75
2022/07/28 02:35:02;;;;;;;0.10;0.10;;;12.70;99.90;11.70;97232.00;;;;5030980;28;20211;-77
2022/07/28 02:37:38;;;;;;;0.10;0.10;;;12.60;99.90;11.60;97227.00;;;;5029114;28;20622;-75
2022/07/28 02:40:13;;;;;;;0.10;0.10;;;12.50;99.90;11.50;97235.00;;;;5031530;28;20195;-76
2022/07/28 02:42:45;;;;;;;0.10;0.10;;;12.50;99.90;11.60;97224.00;;;;5030006;28;20206;-76
2022/07/28 02:45:18;;;;;;;0.10;0.10;;;12.50;99.90;11.70;97234.00;;;;5011309;28;20196;-76
2022/07/28 02:47:53;;;;;;;0.10;0.10;;;12.50;99.90;11.80;97242.00;;;;5028398;28;20199;-77
2022/07/28 02:50:25;;;;;;;0.10;0.10;;;12.70;99.90;11.70;97195.00;;;;5031488;28;20570;-76
2022/07/28 02:53:00;;;;;;;0.08;0.08;;;12.70;99.90;11.80;97210.00;;;;5031076;28;20223;-75
2022/07/28 02:55:44;;;;;;;0.10;0.10;;;12.80;99.90;11.50;97186.00;;;;5018638;28;20279;-75
2022/07/28 02:58:14;;;;;;;0.10;0.10;;;12.60;99.90;11.60;97220.00;;;;5012469;28;20219;-77
2022/07/28 03:00:44;;;;;;;0.10;0.10;;;12.70;99.90;11.50;97226.00;;;;5012037;28;20553;-76
2022/07/28 03:03:15;;;;;;;0.10;0.10;;;12.60;99.90;11.50;97225.00;;;;5019128;28;20218;-77
2022/07/28 03:05:45;;;;;;;0.10;0.10;;;12.50;99.90;11.40;97230.00;;;;5035506;28;20199;-76
2022/07/28 03:08:14;;;;;;;0.10;0.10;;;12.40;99.90;11.40;97196.00;;;;5030743;28;20210;-76
2022/07/28 03:10:43;;;;;;;0.10;0.10;;;12.40;99.90;11.40;97220.00;;;;5023170;28;20192;-76
2022/07/28 03:13:11;;;;;;;0.10;0.10;;;12.40;99.90;11.40;97219.00;;;;5019281;28;20215;-77
2022/07/28 03:15:39;;;;;;;0.10;0.10;;;12.30;99.90;11.40;97218.00;;;;5015315;28;20215;-71
2022/07/28 03:18:07;;;;;;;0.10;0.10;;;12.40;99.90;11.30;97205.00;;;;5030758;28;20215;-72
2022/07/28 03:20:37;;;;;;;0.10;0.10;;;12.30;99.90;11.30;97177.00;;;;5034383;28;20187;-72
2022/07/28 03:23:06;;;;;;;0.10;0.10;;;12.30;99.90;11.30;97175.00;;;;5032208;28;20227;-71
2022/07/28 03:25:42;;;;;;;0.10;0.10;;;12.30;99.90;11.40;97216.00;;;;5016219;28;20211;-72
2022/07/28 03:28:18;;;;;;;0.10;0.10;;;12.30;99.90;11.20;97214.00;;;;5032687;28;20658;-72
2022/07/28 03:30:56;;;;;;;0.10;0.10;;;12.10;99.90;10.90;97177.00;;;;5034324;28;20190;-72
2022/07/28 03:33:25;;;;;;;0.10;0.10;;;11.90;99.90;10.90;97176.00;;;;5021497;28;20241;-71
2022/07/28 03:36:00;;;;;;;0.10;0.10;;;11.90;99.90;10.80;97090.00;;;;5036182;28;20195;-71
2022/07/28 03:38:36;;;;;;;0.10;0.10;;;11.80;99.90;10.70;97055.00;;;;5017179;28;20226;-71
2022/07/28 03:41:08;;;;;;;0.10;0.10;;;11.80;99.90;10.80;97135.00;;;;5017520;28;20762;-71
2022/07/28 03:43:37;;;;;;;0.10;0.10;;;11.80;99.90;10.80;97134.00;;;;5023129;28;20245;-71
2022/07/28 03:46:07;;;;;;;0.10;0.10;;;11.80;99.90;10.80;97105.00;;;;5035914;28;20199;-71
2022/07/28 03:48:40;;;;;;;0.10;0.10;;;11.90;99.90;10.90;97124.00;;;;5029300;28;20230;-72
2022/07/28 03:51:09;;;;;;;0.10;0.10;;;11.90;99.90;10.90;97104.00;;;;5029148;28;20207;-71
2022/07/28 03:53:38;;;;;;;0.10;0.10;;;11.80;99.90;10.90;97117.00;;;;5030320;28;20831;-71
2022/07/28 03:56:06;;;;;;;0.10;0.10;;;11.90;99.90;11.00;97106.00;;;;5043887;28;20246;-71
2022/07/28 03:58:35;;;;;;;0.10;0.10;;;12.00;99.90;10.70;97123.00;;;;5021879;28;20638;-71
2022/07/28 04:01:03;;;;;;;0.10;0.10;;;12.00;99.90;11.00;97138.00;;;;5018942;28;20200;-71
2022/07/28 04:03:31;;;;;;;0.10;0.10;;;12.00;99.90;11.10;97147.00;;;;5027431;28;20702;-71
2022/07/28 04:06:11;;;;;;;0.10;0.10;;;12.10;99.90;10.90;97147.00;;;;5029937;28;20669;-71
2022/07/28 04:08:39;;;;;;;0.10;0.10;;;12.00;99.90;11.00;97187.00;;;;5032320;28;20469;-71
2022/07/28 04:11:08;;;;;;;0.10;0.10;;;12.00;99.90;11.00;97183.00;;;;5029433;28;20306;-71
2022/07/28 04:13:36;;;;;;;0.10;0.10;;;12.00;99.90;11.00;97191.00;;;;5022851;28;20216;-71
2022/07/28 04:16:06;;;;;;;0.10;0.10;;;12.00;99.90;11.00;97190.00;;;;5013847;28;20224;-72
2022/07/28 04:18:34;;;;;;;0.10;0.10;;;12.00;99.90;11.00;97194.00;;;;5031520;28;20230;-72
2022/07/28 04:21:03;;;;;;;0.10;0.10;;;12.00;99.90;10.90;97114.00;;;;5016194;28;20246;-71
2022/07/28 04:23:32;;;;;;;0.00;0.00;;;12.00;99.90;11.00;97123.00;;;;5022791;28;20211;-72
2022/07/28 04:26:00;;;;;;;0.08;0.08;;;12.00;99.90;11.20;97130.00;;;;5033869;28;20199;-72
2022/07/28 04:28:28;;;;;;;0.10;0.10;;;12.20;99.90;11.20;97153.00;;;;5014107;28;20210;-71
2022/07/28 04:30:56;;;;;;;0.10;0.10;;;12.20;99.90;11.20;97173.00;;;;5030884;28;20195;-73
2022/07/28 04:33:25;;;;;;;0.10;0.10;;;12.20;99.90;11.20;97196.00;;;;5030436;28;20345;-71
2022/07/28 04:35:53;;;;;;;0.10;0.10;;;12.20;99.90;11.00;97167.00;;;;5022810;28;20206;-71
2022/07/28 04:38:21;;;;;;;0.10;0.10;;;12.10;99.90;10.80;97165.00;;;;5029104;28;20203;-71
2022/07/28 04:40:50;;;;;;;0.10;0.10;;;12.00;99.90;10.70;96818.00;;;;5021968;28;20217;-72
2022/07/28 04:43:18;;;;;;;0.10;0.10;;;12.00;99.90;11.00;97025.00;;;;5033093;28;20238;-71
2022/07/28 04:45:50;;;;;;;0.10;0.10;;;12.10;99.90;11.10;97134.00;;;;5022537;28;20203;-71
2022/07/28 04:48:22;;;;;;;0.10;0.10;;;12.10;99.90;11.30;97206.00;;;;5028745;28;20199;-70
2022/07/28 04:50:51;;;;;;;0.10;0.10;;;12.20;99.90;226.50;163598.00;;;;5014336;28;20667;-71
2022/07/28 04:53:20;;;;;;;0.10;0.10;;;12.30;99.90;226.50;231333.00;;;;5029832;28;20269;-71
2022/07/28 04:55:51;;;;;;;0.00;0.00;;;12.30;99.90;226.50;231333.00;;;;5033429;28;20198;-71
2022/07/28 04:58:21;;;;;;;0.10;0.10;;;12.40;99.90;226.50;231333.00;;;;5032942;28;20215;-72
2022/07/28 05:00:50;;;;;;;0.10;0.10;;;12.20;99.90;226.50;231333.00;;;;5033342;28;20199;-71
2022/07/28 05:03:20;;;;;;;0.10;0.10;;;12.10;99.90;226.50;231333.00;;;;5032041;28;20314;-72
2022/07/28 05:05:49;;;;;;;0.10;0.10;;;12.10;99.90;226.50;231333.00;;;;5033191;28;20282;-71
2022/07/28 05:08:22;;;;;;;0.10;0.10;;;12.10;99.90;226.50;231333.00;;;;5024679;28;20218;-71
2022/07/28 05:10:55;;;;;;;0.10;0.10;;;12.10;99.90;226.50;231333.00;;;;5033080;28;20654;-71
2022/07/28 05:13:24;;;;;;;0.10;0.10;;;12.10;99.90;226.50;231333.00;;;;5033041;28;20211;-71
2022/07/28 05:16:00;;;;;;;0.10;0.10;;;12.00;99.90;226.50;231333.00;;;;5033107;28;20201;-70
2022/07/28 05:18:29;;;;;;;0.03;0.03;;;12.00;99.90;226.50;231333.00;;;;5031105;28;20226;-72
2022/07/28 05:20:57;;;;;;;0.10;0.10;;;12.00;99.90;226.50;231333.00;;;;5032518;28;20191;-72
2022/07/28 05:23:25;;;;;;;0.10;0.10;;;12.00;99.90;226.50;231333.00;;;;5032790;28;20710;-78
2022/07/28 05:25:54;;;;;;;0.10;0.10;;;12.00;99.90;226.50;231333.00;;;;5018160;28;20196;-73
2022/07/28 05:28:22;;;;;;;0.10;0.10;;;12.10;99.90;226.50;231333.00;;;;5012867;28;20218;-74
2022/07/28 05:30:50;;;;;;;0.10;0.10;;;12.20;99.90;226.50;231333.00;;;;5014158;28;20208;-74
2022/07/28 05:33:18;;;;;;;0.10;0.10;;;12.20;99.90;226.50;231333.00;;;;5012890;28;20231;-74
2022/07/28 05:35:53;;;;;;;0.10;0.10;;;12.40;99.90;226.50;231333.00;;;;5017833;28;20187;-74
2022/07/28 05:38:21;;;;;;;0.10;0.10;;;12.40;99.90;226.50;231333.00;;;;5032381;28;20215;-74
2022/07/28 05:40:50;;;;;;;0.10;0.10;;;12.50;99.90;226.50;231333.00;;;;5031329;28;20233;-74
2022/07/28 05:43:20;;;;;;;0.10;0.10;;;12.40;99.90;226.50;231333.00;;;;5032836;28;20215;-73
2022/07/28 05:45:48;;;;;;;0.10;0.10;;;12.20;99.90;226.50;231333.00;;;;5033269;28;20292;-73
2022/07/28 05:48:18;;;;;;;0.10;0.10;;;12.40;99.90;11.70;94145.00;;;;5032429;28;20237;-73
2022/07/28 05:50:46;;;;;;;0.10;0.10;;;12.60;99.90;12.00;97190.00;;;;5032968;28;20195;-73
2022/07/28 05:53:14;;;;;;;0.10;0.10;;;12.80;99.90;12.10;97207.00;;;;5032798;28;20616;-73
2022/07/28 05:55:43;;;;;;;0.10;0.10;;;12.90;99.90;12.20;97213.00;;;;5033095;28;20195;-74
2022/07/28 05:58:30;;;;;;;0.10;0.10;;;13.00;99.90;12.20;97234.00;;;;5032816;28;20219;-74
2022/07/28 06:01:00;;;;;;;0.10;0.10;;;13.00;99.90;12.30;97225.00;;;;5033066;28;20214;-73
2022/07/28 06:03:30;;;;;;;0.10;0.10;;;13.00;99.90;12.30;97235.00;;;;5033071;28;20210;-74
2022/07/28 06:05:59;;;;;;;0.10;0.10;;;13.10;99.90;12.40;97228.00;;;;5033526;28;20256;-73
2022/07/28 06:08:46;;;;;;;0.10;0.10;;;13.20;99.90;12.70;97240.00;;;;5032790;28;20218;-72
2022/07/28 06:11:15;;;;;;;0.10;0.10;;;13.40;99.90;12.80;97241.00;;;;5032499;28;20201;-72
2022/07/28 06:13:51;;;;;;;0.10;0.10;;;13.50;99.90;12.90;97264.00;;;;5032524;28;20217;-72
2022/07/28 06:16:21;;;;;;;0.10;0.10;;;13.60;99.90;12.90;97243.00;;;;5032859;28;20199;-72
2022/07/28 06:18:50;;;;;;;0.10;0.10;;;13.60;99.90;12.90;97272.00;;;;5032365;28;20779;-72
2022/07/28 06:21:19;;;;;;;0.10;0.10;;;13.60;99.90;13.00;97273.00;;;;5033291;28;20195;-72
2022/07/28 06:23:47;;;;;;;0.10;0.10;;;13.80;99.90;13.10;97271.00;;;;5033213;28;20218;-72
2022/07/28 06:26:15;;;;;;;0.10;0.10;;;13.90;99.90;13.20;97252.00;;;;5032722;28;20191;-72
2022/07/28 06:28:43;;;;;;;0.10;0.10;;;14.00;99.90;13.40;97249.00;;;;5033900;28;20195;-73
2022/07/28 06:31:12;;;;;;;0.08;0.08;;;14.20;99.90;13.40;97253.00;;;;5033744;28;20187;-73
2022/07/28 06:33:41;;;;;;;0.08;0.08;;;14.20;99.90;13.50;97235.00;;;;5033690;28;20272;-73
2022/07/28 06:36:09;;;;;;;0.10;0.10;;;14.30;99.90;13.70;97236.00;;;;5035114;28;20199;-73
2022/07/28 06:38:37;;;;;;;0.00;0.00;;;14.40;99.90;13.80;97248.00;;;;5037111;28;20261;-73
2022/07/28 06:41:05;;;;;;;0.10;0.10;;;14.60;99.90;14.00;97223.00;;;;5035768;28;20240;-73
2022/07/28 06:43:33;;;;;;;0.10;0.10;;;14.70;99.90;14.20;97216.00;;;;5034916;28;20226;-73
2022/07/28 06:46:06;;;;;;;0.00;0.00;;;14.90;99.90;14.30;97231.00;;;;5036424;28;20252;-73
2022/07/28 06:48:36;;;;;;;0.10;0.10;;;15.00;99.90;14.40;97229.00;;;;5035454;28;20662;-73
2022/07/28 06:51:05;;;;;;;0.00;0.00;;;15.10;99.90;226.50;164830.00;;;;5035640;28;20195;-74
2022/07/28 06:53:33;;;;;;;0.00;0.00;;;15.20;99.90;14.50;97221.00;;;;5035771;28;20301;-74
2022/07/28 06:56:04;;;;;;;0.00;0.00;;;15.20;99.90;14.60;97222.00;;;;5035889;28;20214;-74
2022/07/28 06:58:33;;;;;;;0.00;0.00;;;15.30;99.90;14.70;97249.00;;;;5043701;28;20211;-75
2022/07/28 07:01:01;;;;;;;0.10;0.10;;;15.40;99.90;14.80;97246.00;;;;5024253;28;20325;-75
2022/07/28 07:03:30;;;;;;;0.08;0.08;;;15.60;99.90;226.50;165138.00;;;;5015551;28;20714;-75
2022/07/28 07:05:59;;;;;;;0.00;0.00;;;15.80;99.90;226.50;231333.00;;;;5034779;28;20206;-75
2022/07/28 07:08:27;;;;;;;0.10;0.10;;;15.90;99.90;226.50;231333.00;;;;5030431;28;20195;-74
2022/07/28 07:10:55;;;;;;;0.03;0.03;;;16.00;99.90;226.50;231333.00;;;;5015916;28;20604;-74
2022/07/28 07:13:24;;;;;;;0.00;0.00;;;16.10;99.90;226.50;231333.00;;;;5015109;28;20231;-74
2022/07/28 07:15:52;;;;;;;0.08;0.08;;;16.20;99.90;226.50;231333.00;;;;5015316;28;20573;-74
2022/07/28 07:18:20;;;;;;;0.00;0.00;;;16.40;99.90;226.50;231333.00;;;;5014909;28;20207;-73
2022/07/28 07:20:48;;;;;;;0.10;0.10;;;16.50;99.90;226.50;231333.00;;;;5015315;28;20230;-74
2022/07/28 07:23:17;;;;;;;0.10;0.10;;;16.70;99.90;226.50;231333.00;;;;5013487;28;20223;-74
2022/07/28 07:25:45;;;;;;;0.00;0.00;;;16.90;99.90;226.50;231333.00;;;;5015135;28;20551;-74
2022/07/28 07:28:13;;;;;;;0.00;0.00;;;17.00;99.90;226.50;231333.00;;;;5014521;28;20667;-72
2022/07/28 07:30:41;;;;;;;0.00;0.00;;;17.30;99.90;226.50;231333.00;;;;5014877;28;20204;-71
2022/07/28 07:33:09;;;;;;;0.00;0.00;;;17.50;99.90;226.50;231333.00;;;;5014953;28;20261;-71
2022/07/28 07:35:37;;;;;;;0.10;0.10;;;17.60;99.90;226.50;231333.00;;;;5014619;28;20206;-71
2022/07/28 07:38:05;;;;;;;0.00;0.00;;;17.80;99.90;226.50;231333.00;;;;5014709;28;20195;-71
2022/07/28 07:40:35;;;;;;;0.03;0.03;;;17.90;99.90;17.80;93549.00;;;;5014332;28;20216;-71
2022/07/28 07:43:04;;;;;;;0.00;0.00;;;18.10;99.90;17.70;97180.00;;;;5015028;28;20216;-71
2022/07/28 07:45:33;;;;;;;0.00;0.00;;;18.20;99.90;17.90;97194.00;;;;5016547;28;20210;-72
2022/07/28 07:48:01;;;;;;;0.00;0.00;;;18.40;99.90;18.20;97222.00;;;;5013897;28;20679;-72
2022/07/28 07:50:30;;;;;;;0.00;0.00;;;18.60;99.90;18.30;97216.00;;;;5024759;28;20632;-71
2022/07/28 07:52:58;;;;;;;0.00;0.00;;;18.90;99.90;18.60;97221.00;;;;5014441;28;20215;-72
2022/07/28 07:55:26;;;;;;;0.00;0.00;;;19.00;99.90;19.10;93480.00;;;;5014465;28;20238;-71
2022/07/28 07:58:03;;;;;;;0.10;0.10;;;19.20;99.90;18.50;94364.00;;;;5014816;28;20209;-72
2022/07/28 08:00:32;;;;;;;0.03;0.03;;;19.30;99.90;18.90;94265.00;;;;5014603;28;20227;-72
2022/07/28 08:03:00;;;;;;;0.03;0.03;;;19.50;99.90;18.90;94827.00;;;;5014619;28;20214;-71
2022/07/28 08:05:29;;;;;;;0.00;0.00;;;19.70;99.90;18.90;94669.00;;;;5014187;28;20192;-71
2022/07/28 08:08:04;;;;;;;0.00;0.00;;;19.80;99.90;19.60;97194.00;;;;5014052;28;20241;-71
2022/07/28 08:10:33;;;;;;;0.00;0.00;;;20.00;99.90;19.80;97219.00;;;;5014209;28;20283;-71
2022/07/28 08:13:03;;;;;;;0.00;0.00;;;20.20;99.90;19.90;94109.00;;;;5014562;28;20570;-72
2022/07/28 08:15:32;;;;;;;0.00;0.00;;;20.40;99.90;19.80;94386.00;;;;5013987;28;20772;-71
2022/07/28 08:18:01;;;;;;;0.00;0.00;;;20.50;99.90;19.90;94516.00;;;;5014348;28;20191;-71
2022/07/28 08:20:29;;;;;;;0.00;0.00;;;20.70;99.90;20.10;94599.00;;;;5014160;28;20204;-71
2022/07/28 08:22:58;;;;;;;0.00;0.00;;;20.90;99.90;20.30;94772.00;;;;5013959;28;20728;-71
2022/07/28 08:25:26;;;;;;;0.00;0.00;;;21.10;99.90;20.50;95172.00;;;;5014392;28;20203;-71
2022/07/28 08:27:54;;;;;;;0.00;0.00;;;21.30;99.90;21.10;97199.00;;;;5014111;28;20556;-71
2022/07/28 08:30:24;;;;;;;0.00;0.00;;;21.50;99.90;20.80;94899.00;;;;5013869;28;20200;-71
2022/07/28 08:32:59;;;;;;;0.00;0.00;;;21.60;99.50;21.10;94774.00;;;;5013735;28;20223;-71
2022/07/28 08:35:27;;;;;;;0.03;0.03;;;21.80;98.70;21.60;97188.00;;;;5013545;28;20195;-71
2022/07/28 08:38:03;;;;;;;0.00;0.00;;;22.00;98.00;21.10;96063.00;;;;5013642;28;20233;-71
2022/07/28 08:40:32;;;;;;;0.00;0.00;;;22.10;98.10;21.40;96061.00;;;;5013604;28;20608;-71
2022/07/28 08:43:09;;;;;;;0.00;0.00;;;22.30;98.00;21.60;96327.00;;;;5013409;28;20211;-71
2022/07/28 08:45:43;;;;;;;0.00;0.00;;;22.40;97.20;21.80;96367.00;;;;5027975;28;20203;-71
2022/07/28 08:48:13;;;;;;;0.00;0.00;;;22.60;96.80;21.80;96317.00;;;;5033046;28;20203;-72
2022/07/28 08:50:44;;;;;;;0.00;0.00;;;22.70;96.50;21.80;96168.00;;;;5033344;28;20214;-71
2022/07/28 08:53:14;;;;;;;0.00;0.00;;;22.70;96.30;22.00;96184.00;;;;5033157;28;20297;-71
2022/07/28 08:55:43;;;;;;;0.00;0.00;;;22.90;96.90;22.30;96168.00;;;;5033379;28;20550;-71
2022/07/28 08:58:12;;;;;;;0.00;0.00;;;23.10;96.60;22.30;96203.00;;;;5033062;28;20290;-72
2022/07/28 09:00:41;;;;;;;0.00;0.00;;;23.20;96.50;22.60;96187.00;;;;5033043;28;20629;-72
2022/07/28 09:03:12;;;;;;;0.00;0.00;;;23.40;96.60;22.70;96232.00;;;;5035004;28;20690;-71
2022/07/28 09:05:42;;;;;;;0.00;0.00;;;23.50;96.30;22.60;96229.00;;;;5035479;28;20195;-72
2022/07/28 09:08:11;;;;;;;0.00;0.00;;;23.60;95.90;22.80;96208.00;;;;5035312;28;20676;-71
2022/07/28 09:10:39;;;;;;;0.00;0.00;;;23.70;95.80;22.50;96197.00;;;;5040255;28;20218;-71
2022/07/28 09:13:07;;;;;;;0.00;0.00;;;23.50;95.20;22.60;96292.00;;;;5044315;28;20225;-73
2022/07/28 09:15:43;;;;;;;0.00;0.00;;;23.60;95.60;22.90;96343.00;;;;5042523;28;20190;-72
2022/07/28 09:18:11;;;;;;;0.00;0.00;;;23.80;94.70;23.00;96293.00;;;;5041104;28;20248;-72
2022/07/28 09:20:41;;;;;;;0.00;0.00;;;23.90;94.40;22.90;96290.00;;;;5033026;28;20238;-72
2022/07/28 09:23:11;;;;;;;0.00;0.00;;;23.90;94.80;22.90;96329.00;;;;5032652;28;20258;-71
2022/07/28 09:26:07;;;;;;;0.00;0.00;;;23.90;94.90;23.20;96456.00;;;;5032881;28;20188;-72
2022/07/28 09:28:51;;;;;;;0.00;0.00;;;24.00;94.80;23.60;96455.00;;;;5033177;28;20195;-72
2022/07/28 09:31:21;;;;;;;0.00;0.00;;;24.30;94.20;23.90;96393.00;;;;5033141;28;20191;-72
2022/07/28 09:33:55;;;;;;;0.00;0.00;;;24.60;94.00;24.00;96298.00;;;;5033075;28;20292;-72
2022/07/28 09:36:24;;;;;;;0.00;0.00;;;24.80;93.10;23.60;96324.00;;;;5032634;28;20565;-71
2022/07/28 09:38:52;;;;;;;0.00;0.00;;;24.50;93.00;23.60;96248.00;;;;5032450;28;20202;-72
2022/07/28 09:41:20;;;;;;;0.00;0.00;;;24.50;93.10;23.50;96277.00;;;;5031969;28;20215;-72
2022/07/28 09:43:52;;;;;;;0.00;0.00;;;24.50;92.90;23.70;96267.00;;;;5032146;28;20210;-72
2022/07/28 09:46:27;;;;;;;0.00;0.00;;;24.70;93.40;23.70;96257.00;;;;5031765;28;20196;-72
2022/07/28 09:48:59;;;;;;;0.00;0.00;;;24.70;93.10;24.10;96284.00;;;;5032450;28;20249;-72
2022/07/28 09:51:30;;;;;;;0.00;0.00;;;24.90;92.90;24.30;96302.00;;;;5032002;28;20195;-72
2022/07/28 09:54:10;;;;;;;0.00;0.00;;;25.10;93.00;24.20;96292.00;;;;5032416;28;20608;-72
2022/07/28 09:56:42;;;;;;;0.00;0.00;;;25.10;92.30;24.00;96279.00;;;;5032220;28;20194;-72
2022/07/28 09:59:11;;;;;;;0.00;0.00;;;24.80;91.90;24.10;96278.00;;;;5032632;28;20205;-71
2022/07/28 10:01:55;;;;;;;0.00;0.00;;;24.90;92.40;24.40;96314.00;;;;5030701;28;20313;-72
2022/07/28 10:04:32;;;;;;;0.00;0.00;;;25.20;91.40;24.50;96208.00;;;;5032281;28;20194;-72
2022/07/28 10:07:04;;;;;;;0.00;0.00;;;25.40;91.80;24.70;96205.00;;;;5032579;28;20202;-72
2022/07/28 10:09:33;;;;;;;0.00;0.00;;;25.50;91.60;25.00;96270.00;;;;5032330;28;20213;-72
2022/07/28 10:12:19;;;;;;;0.00;0.00;;;25.70;91.20;25.10;96247.00;;;;5032204;28;20215;-72
2022/07/28 10:14:49;;;;;;;0.00;0.00;;;25.90;90.80;25.50;96286.00;;;;5032412;28;20195;-72
2022/07/28 10:17:29;;;;;;;0.00;0.00;;;26.10;90.50;25.20;96265.00;;;;5031528;28;20485;-72
2022/07/28 10:20:00;;;;;;;0.00;0.00;;;26.00;89.20;25.40;96316.00;;;;5032099;28;20190;-72
2022/07/28 10:22:32;;;;;;;0.00;0.00;;;26.20;89.90;25.50;96299.00;;;;5032203;28;20559;-72
2022/07/28 10:25:02;;;;;;;0.00;0.00;;;26.30;88.40;25.50;96300.00;;;;5032181;28;20692;-72
2022/07/28 10:27:32;;;;;;;0.00;0.00;;;26.50;87.50;25.10;96280.00;;;;5031497;28;20186;-73
2022/07/28 10:30:04;;;;;;;0.00;0.00;;;25.90;87.50;25.40;96288.00;;;;5032661;28;20195;-72
2022/07/28 10:32:41;;;;;;;0.00;0.00;;;26.20;88.30;26.00;96387.00;;;;5031635;28;20231;-72
2022/07/28 10:35:12;;;;;;;0.00;0.00;;;26.50;88.10;26.80;97218.00;;;;5032396;28;20195;-73
2022/07/28 10:37:51;;;;;;;0.00;0.00;;;26.80;85.90;26.00;96409.00;;;;5032128;28;20546;-72
2022/07/28 10:40:26;;;;;;;0.00;0.00;;;26.80;84.90;25.90;96305.00;;;;5025250;28;20201;-73
2022/07/28 10:42:56;;;;;;;0.00;0.00;;;26.70;86.30;26.70;97178.00;;;;5027351;28;20246;-72
2022/07/28 10:45:24;;;;;;;0.00;0.00;;;26.90;85.30;26.30;96260.00;;;;5012578;28;20184;-72
2022/07/28 10:48:15;;;;;;;0.00;0.00;;;27.00;85.50;27.00;97168.00;;;;5013171;28;20208;-72
2022/07/28 10:50:44;;;;;;;0.00;0.00;;;27.20;84.70;27.40;97175.00;;;;5013986;28;20210;-73
2022/07/28 10:53:30;;;;;;;0.00;0.00;;;27.40;83.50;26.70;96255.00;;;;5012091;28;20606;-73
2022/07/28 10:56:06;;;;;;;0.00;0.00;;;27.50;82.60;26.60;96414.00;;;;5012140;28;20745;-72
2022/07/28 10:58:47;;;;;;;0.00;0.00;;;27.30;82.90;27.40;97183.00;;;;5011422;28;20206;-72
2022/07/28 11:01:35;;;;;;;0.00;0.00;;;27.50;82.40;27.20;96362.00;;;;5012395;28;20286;-73
2022/07/28 11:05:00;;;;;;;0.00;0.00;;;27.70;82.00;27.50;96414.00;;;;5011846;28;20277;-72
2022/07/28 11:07:39;;;;;;;0.00;0.00;;;27.90;80.90;27.60;96370.00;;;;5011637;28;20721;-72
2022/07/28 11:10:18;;;;;;;0.00;0.00;;;28.10;81.00;27.00;96347.00;;;;5011979;28;20206;-72
2022/07/28 11:12:48;;;;;;;0.00;0.00;;;27.70;80.70;27.70;97177.00;;;;5012570;28;20231;-72